Time;durP1;ratioP1;P1;durP2;ratioP2;P2;SDS_P1;SDS_P2;PMS_P1;PMS_P2;Temp;Humidity;BMP_temperature;BMP_pressure;BME280_temperature;BME280_humidity;BME280_pressure;Samples;Min_cycle;Max_cycle;Signal;HPM_P1;HPM_P2
2023/06/29 00:01:45;;;;;;;2.25;1.30;;;;;;;23.67;40.74;100184.69;5031430;28;20049;-69
2023/06/29 00:04:21;;;;;;;2.47;1.35;;;;;;;23.66;40.66;100188.44;5031964;28;20064;-69
2023/06/29 00:06:49;;;;;;;3.10;1.33;;;;;;;23.65;40.70;100185.91;5031732;28;20041;-68
2023/06/29 00:09:19;;;;;;;2.88;1.60;;;;;;;23.64;40.69;100187.78;5031691;28;20061;-69
2023/06/29 00:11:48;;;;;;;4.72;1.50;;;;;;;23.62;40.72;100187.09;5031746;28;20360;-69
2023/06/29 00:14:17;;;;;;;2.20;1.38;;;;;;;23.61;40.82;100193.56;5031552;28;20163;-68
2023/06/29 00:16:45;;;;;;;3.15;1.38;;;;;;;23.60;40.89;100194.59;5031662;28;20049;-68
2023/06/29 00:19:14;;;;;;;2.03;1.27;;;;;;;23.61;40.77;100195.44;5031654;28;20994;-69
2023/06/29 00:21:46;;;;;;;4.15;1.45;;;;;;;23.59;40.73;100192.06;5031621;28;20077;-69
2023/06/29 00:24:14;;;;;;;3.13;1.40;;;;;;;23.58;40.80;100193.91;5031441;28;20045;-69
2023/06/29 00:26:43;;;;;;;2.25;1.20;;;;;;;23.57;40.75;100186.75;5031366;28;20498;-69
2023/06/29 00:29:12;;;;;;;3.25;1.60;;;;;;;23.57;40.91;100194.09;5031248;28;20103;-69
2023/06/29 00:31:40;;;;;;;3.78;1.70;;;;;;;23.56;40.81;100190.50;5031538;28;20049;-69
2023/06/29 00:34:08;;;;;;;3.95;1.80;;;;;;;23.55;40.89;100191.53;5031565;28;20080;-69
2023/06/29 00:36:36;;;;;;;2.45;1.48;;;;;;;23.55;40.93;100190.69;5031495;28;20136;-68
2023/06/29 00:39:04;;;;;;;2.60;1.50;;;;;;;23.53;40.90;100195.44;5031223;28;20045;-69
2023/06/29 00:41:33;;;;;;;2.80;1.40;;;;;;;23.53;41.04;100190.00;5031539;28;20132;-68
2023/06/29 00:44:01;;;;;;;2.50;1.40;;;;;;;23.51;41.02;100192.91;5031507;28;20103;-68
2023/06/29 00:46:30;;;;;;;3.50;1.60;;;;;;;23.50;41.02;100193.09;5031190;28;20494;-69
2023/06/29 00:49:01;;;;;;;3.35;1.50;;;;;;;23.49;41.12;100191.41;5031358;28;20085;-68
2023/06/29 00:51:31;;;;;;;3.05;1.50;;;;;;;23.48;41.18;100192.44;5031199;28;20049;-69
2023/06/29 00:54:00;;;;;;;3.33;1.73;;;;;;;23.47;40.99;100183.41;5031116;28;20171;-69
2023/06/29 00:56:31;;;;;;;4.07;1.70;;;;;;;23.46;41.11;100183.59;5031433;28;20133;-69
2023/06/29 00:58:59;;;;;;;3.17;1.50;;;;;;;23.45;40.92;100184.59;5031226;28;20053;-68
2023/06/29 01:01:28;;;;;;;3.30;1.30;;;;;;;23.43;41.08;100191.06;5030950;28;20050;-69
2023/06/29 01:03:57;;;;;;;3.63;1.60;;;;;;;23.42;41.19;100188.53;5031048;28;20052;-68
2023/06/29 01:06:31;;;;;;;3.00;1.60;;;;;;;23.41;41.03;100184.94;5031106;28;20072;-68
2023/06/29 01:09:04;;;;;;;3.55;1.70;;;;;;;23.40;41.07;100183.25;5030885;28;20045;-68
2023/06/29 01:11:33;;;;;;;4.20;1.42;;;;;;;23.39;41.01;100184.28;5030992;28;20103;-68
2023/06/29 01:14:05;;;;;;;3.38;1.52;;;;;;;23.38;40.97;100185.31;5030893;28;20483;-68
2023/06/29 01:16:35;;;;;;;2.90;1.33;;;;;;;23.37;41.05;100185.50;5030898;28;20433;-69
2023/06/29 01:19:08;;;;;;;3.80;1.60;;;;;;;23.36;41.11;100171.03;5031739;28;20125;-68
2023/06/29 01:21:42;;;;;;;2.35;1.27;;;;;;;23.35;41.13;100169.31;5034820;28;20045;-68
2023/06/29 01:24:14;;;;;;;3.10;1.40;;;;;;;23.34;41.10;100172.22;5034896;28;20140;-68
2023/06/29 01:26:44;;;;;;;3.05;1.60;;;;;;;23.34;40.97;100178.50;5034802;28;20049;-69
2023/06/29 01:29:13;;;;;;;3.10;1.35;;;;;;;23.34;41.11;100183.09;5034705;28;20482;-69
2023/06/29 01:31:41;;;;;;;3.15;1.30;;;;;;;23.34;41.18;100177.66;5034626;28;20049;-69
2023/06/29 01:34:09;;;;;;;2.88;1.67;;;;;;;23.33;41.04;100181.41;5034385;28;20112;-69
2023/06/29 01:36:41;;;;;;;3.75;1.70;;;;;;;23.33;41.06;100184.13;5034498;28;20582;-68
2023/06/29 01:39:17;;;;;;;2.65;1.27;;;;;;;23.33;41.02;100184.13;5034407;28;20053;-68
2023/06/29 01:41:48;;;;;;;3.65;1.63;;;;;;;23.32;41.22;100180.56;5034352;28;20045;-68
2023/06/29 01:44:18;;;;;;;2.88;1.60;;;;;;;23.32;41.08;100169.69;5034156;28;20056;-68
2023/06/29 01:46:48;;;;;;;3.45;1.50;;;;;;;23.31;41.19;100168.00;5034237;28;20084;-68
2023/06/29 01:49:17;;;;;;;2.50;1.33;;;;;;;23.31;41.22;100172.59;5034433;28;20143;-68
2023/06/29 01:51:45;;;;;;;2.95;1.50;;;;;;;23.30;41.14;100169.03;5034339;28;20156;-68
2023/06/29 01:54:13;;;;;;;3.25;1.42;;;;;;;23.30;41.30;100169.03;5034221;28;20391;-68
2023/06/29 01:56:41;;;;;;;4.03;1.50;;;;;;;23.30;41.35;100166.28;5034165;28;20072;-68
2023/06/29 01:59:11;;;;;;;2.13;1.38;;;;;;;23.29;41.27;100169.19;5034223;28;20049;-69
2023/06/29 02:01:39;;;;;;;3.10;1.35;;;;;;;23.28;41.33;100162.91;5033920;28;20045;-68
2023/06/29 02:04:07;;;;;;;3.30;1.60;;;;;;;23.27;41.35;100166.66;5034141;28;20051;-68
2023/06/29 02:06:35;;;;;;;3.00;1.40;;;;;;;23.26;41.44;100175.84;5034032;28;20132;-67
2023/06/29 02:09:04;;;;;;;3.13;1.50;;;;;;;23.25;41.37;100165.13;5034138;28;20045;-68
2023/06/29 02:11:32;;;;;;;3.28;1.50;;;;;;;23.25;41.39;100160.53;5033820;28;20045;-68
2023/06/29 02:14:00;;;;;;;2.85;1.67;;;;;;;23.25;41.40;100174.13;5033734;28;20049;-67
2023/06/29 02:16:30;;;;;;;3.08;1.60;;;;;;;23.24;41.52;100171.59;5033936;28;20525;-66
2023/06/29 02:18:58;;;;;;;2.38;1.30;;;;;;;23.23;41.38;100175.34;5033685;28;20103;-68
2023/06/29 02:21:26;;;;;;;3.05;1.33;;;;;;;23.23;41.27;100180.78;5033665;28;20046;-68
2023/06/29 02:23:55;;;;;;;2.97;1.50;;;;;;;23.22;41.46;100177.22;5033593;28;20080;-67
2023/06/29 02:26:25;;;;;;;3.15;1.70;;;;;;;23.22;41.34;100179.94;5033617;28;20041;-67
2023/06/29 02:28:53;;;;;;;2.72;1.23;;;;;;;23.21;41.38;100178.22;5033697;28;20081;-67
2023/06/29 02:31:22;;;;;;;2.58;1.35;;;;;;;23.22;41.66;100185.38;5032578;28;20057;-69
2023/06/29 02:33:53;;;;;;;3.95;1.50;;;;;;;23.22;41.52;100179.09;5033551;28;20049;-68
2023/06/29 02:36:22;;;;;;;3.70;1.50;;;;;;;23.21;41.49;100186.41;5015896;28;20099;-68
2023/06/29 02:38:50;;;;;;;3.05;1.50;;;;;;;23.19;41.47;100183.00;5033429;28;20143;-68
2023/06/29 02:41:18;;;;;;;3.92;1.58;;;;;;;23.19;41.60;100179.44;5033360;28;20061;-68
2023/06/29 02:43:46;;;;;;;3.50;1.30;;;;;;;23.18;41.55;100178.59;5016124;28;20519;-69
2023/06/29 02:46:15;;;;;;;3.92;1.60;;;;;;;23.18;41.50;100184.03;5033506;28;20045;-69
2023/06/29 02:48:43;;;;;;;3.15;1.60;;;;;;;23.17;41.53;100176.06;5033637;28;20046;-69
2023/06/29 02:51:13;;;;;;;3.00;1.55;;;;;;;23.16;41.53;100172.47;5033229;28;20046;-69
2023/06/29 02:53:41;;;;;;;3.30;1.50;;;;;;;23.15;41.61;100184.38;5033413;28;20486;-69
2023/06/29 02:56:09;;;;;;;3.47;1.60;;;;;;;23.14;41.63;100174.50;5033267;28;20053;-68
2023/06/29 02:58:37;;;;;;;2.85;1.60;;;;;;;23.12;41.54;100171.13;5033072;28;20328;-68
2023/06/29 03:01:05;;;;;;;3.42;1.63;;;;;;;23.12;41.72;100176.56;5032800;28;20053;-68
2023/06/29 03:03:33;;;;;;;2.45;1.63;;;;;;;23.10;41.75;100178.63;5032923;28;20104;-69
2023/06/29 03:06:02;;;;;;;4.47;1.65;;;;;;;23.10;41.80;100178.63;5032730;28;20119;-69
2023/06/29 03:08:31;;;;;;;3.40;1.60;;;;;;;23.08;41.74;100180.66;5032981;28;20049;-68
2023/06/29 03:10:59;;;;;;;3.03;1.50;;;;;;;23.08;42.02;100175.22;5032803;28;20518;-68
2023/06/29 03:13:28;;;;;;;4.38;1.48;;;;;;;23.07;41.88;100179.81;5032685;28;20077;-68
2023/06/29 03:15:59;;;;;;;2.20;1.40;;;;;;;23.04;41.88;100180.16;5032633;28;20052;-68
2023/06/29 03:18:27;;;;;;;4.80;1.60;;;;;;;23.04;41.82;100180.16;5032569;28;20049;-68
2023/06/29 03:20:55;;;;;;;3.10;1.60;;;;;;;23.04;41.99;100173.88;5032646;28;20049;-67
2023/06/29 03:23:23;;;;;;;5.10;1.70;;;;;;;23.03;41.90;100164.00;5032701;28;20041;-68
2023/06/29 03:25:53;;;;;;;4.50;1.73;;;;;;;23.03;41.76;100164.00;5032832;28;20092;-68
2023/06/29 03:28:21;;;;;;;3.70;1.73;;;;;;;23.02;42.01;100162.31;5032730;28;20049;-68
2023/06/29 03:30:49;;;;;;;3.42;1.60;;;;;;;23.01;41.94;100169.63;5032351;28;20392;-68
2023/06/29 03:33:17;;;;;;;4.63;1.88;;;;;;;23.01;41.94;100176.94;5032143;28;20092;-67
2023/06/29 03:35:46;;;;;;;3.10;1.80;;;;;;;23.00;41.99;100170.66;5032297;28;20482;-67
2023/06/29 03:38:14;;;;;;;4.30;1.85;;;;;;;23.00;41.96;100176.09;5032099;28;20064;-67
2023/06/29 03:40:42;;;;;;;3.63;1.70;;;;;;;23.00;42.11;100177.97;5032169;28;20049;-68
2023/06/29 03:43:11;;;;;;;3.92;1.60;;;;;;;23.00;42.13;100183.41;5031911;28;20124;-68
2023/06/29 03:45:39;;;;;;;3.90;1.83;;;;;;;23.00;41.83;100186.13;5032090;28;20056;-67
2023/06/29 03:48:08;;;;;;;2.85;1.70;;;;;;;23.00;41.97;100180.69;5032300;28;20084;-68
2023/06/29 03:50:36;;;;;;;3.58;1.55;;;;;;;23.00;41.83;100186.13;5032183;28;20041;-68
2023/06/29 03:53:04;;;;;;;3.03;1.50;;;;;;;23.00;42.08;100175.25;5031912;28;20053;-67
2023/06/29 03:55:32;;;;;;;4.50;1.90;;;;;;;23.00;42.07;100183.41;5031775;28;20053;-68
2023/06/29 03:58:01;;;;;;;3.53;1.45;;;;;;;22.99;42.06;100185.28;5031809;28;20487;-67
2023/06/29 04:00:30;;;;;;;5.70;1.90;;;;;;;23.00;41.87;100180.69;5031632;28;20057;-68
2023/06/29 04:02:58;;;;;;;3.83;1.80;;;;;;;23.00;42.18;100186.13;5032062;28;20045;-68
2023/06/29 04:05:27;;;;;;;4.43;1.67;;;;;;;23.00;42.15;100191.56;5031891;28;20056;-68
2023/06/29 04:07:55;;;;;;;3.97;1.60;;;;;;;23.00;42.14;100197.00;5031741;28;20045;-67
2023/06/29 04:10:23;;;;;;;4.60;1.73;;;;;;;23.00;42.11;100194.28;5031624;28;20501;-67
2023/06/29 04:12:51;;;;;;;3.78;1.70;;;;;;;22.99;42.04;100190.72;5031443;28;20052;-67
2023/06/29 04:15:19;;;;;;;2.83;1.50;;;;;;;22.99;42.28;100187.16;5031468;28;20577;-67
2023/06/29 04:17:49;;;;;;;3.53;1.80;;;;;;;22.99;42.15;100190.72;5031520;28;20049;-67
2023/06/29 04:20:18;;;;;;;3.05;1.60;;;;;;;22.99;41.93;100195.31;5031492;28;20077;-68
2023/06/29 04:22:46;;;;;;;2.95;1.60;;;;;;;22.99;42.19;100189.88;5031302;28;20565;-67
2023/06/29 04:25:14;;;;;;;4.82;1.70;;;;;;;22.99;42.22;100184.44;5031426;28;20045;-67
2023/06/29 04:27:42;;;;;;;4.00;1.65;;;;;;;23.00;42.27;100180.69;5031337;28;20048;-68
2023/06/29 04:30:11;;;;;;;3.63;1.73;;;;;;;22.99;42.33;100181.72;5031541;28;20097;-67
2023/06/29 04:32:39;;;;;;;3.25;1.60;;;;;;;22.99;42.12;100181.72;5031435;28;20056;-67
2023/06/29 04:35:10;;;;;;;3.13;1.67;;;;;;;22.98;42.49;100172.72;5031075;28;20049;-68
2023/06/29 04:37:41;;;;;;;2.83;1.67;;;;;;;22.98;42.20;100178.16;5031075;28;20107;-68
2023/06/29 04:40:12;;;;;;;3.83;1.60;;;;;;;22.99;42.42;100187.16;5031333;28;20069;-68
2023/06/29 04:42:45;;;;;;;3.10;1.60;;;;;;;22.99;42.39;100187.16;5031296;28;20053;-67
2023/06/29 04:45:17;;;;;;;3.63;1.60;;;;;;;22.98;42.64;100180.03;5031249;28;20046;-67
2023/06/29 04:47:46;;;;;;;3.30;1.70;;;;;;;22.98;42.37;100180.03;5031267;28;20082;-67
2023/06/29 04:50:16;;;;;;;3.78;1.73;;;;;;;22.96;42.65;100179.31;5031083;28;20329;-68
2023/06/29 04:52:44;;;;;;;4.03;1.80;;;;;;;22.93;42.52;100169.66;5030861;28;20137;-67
2023/06/29 04:55:12;;;;;;;3.63;1.90;;;;;;;22.92;42.79;100175.25;5034273;28;20406;-67
2023/06/29 04:57:40;;;;;;;4.65;1.73;;;;;;;22.94;42.65;100175.94;5034954;28;20541;-67
2023/06/29 05:00:11;;;;;;;3.35;1.65;;;;;;;22.92;42.59;100164.38;5035139;28;20141;-67
2023/06/29 05:02:39;;;;;;;3.63;1.65;;;;;;;22.92;42.75;100167.94;5034910;28;20053;-66
2023/06/29 05:05:08;;;;;;;3.72;1.77;;;;;;;22.92;42.85;100162.50;5035038;28;20052;-67
2023/06/29 05:07:38;;;;;;;5.57;1.90;;;;;;;22.91;42.72;100171.69;5034969;28;20045;-67
2023/06/29 05:10:07;;;;;;;3.67;1.65;;;;;;;22.92;42.82;100172.53;5035041;28;20501;-68
2023/06/29 05:12:36;;;;;;;4.13;1.52;;;;;;;22.94;42.83;100175.94;5035202;28;20045;-67
2023/06/29 05:15:05;;;;;;;4.70;2.00;;;;;;;22.95;42.65;100172.19;5034979;28;20414;-68
2023/06/29 05:17:33;;;;;;;3.47;1.77;;;;;;;22.95;42.73;100161.31;5034867;28;20132;-67
2023/06/29 05:20:04;;;;;;;3.78;1.65;;;;;;;22.96;42.89;100169.28;5034833;28;20075;-68
2023/06/29 05:22:33;;;;;;;4.28;1.98;;;;;;;22.98;42.98;100170.00;5034674;28;20053;-68
2023/06/29 05:25:02;;;;;;;5.00;2.10;;;;;;;22.97;42.91;100164.69;5034590;28;20049;-68
2023/06/29 05:27:31;;;;;;;5.70;2.03;;;;;;;22.97;42.83;100170.13;5034628;28;20054;-68
2023/06/29 05:29:59;;;;;;;3.45;1.95;;;;;;;22.94;43.19;100165.91;5034908;28;20121;-69
2023/06/29 05:32:28;;;;;;;4.10;1.60;;;;;;;22.95;43.09;100177.63;5034473;28;20054;-69
2023/06/29 05:34:56;;;;;;;2.88;1.60;;;;;;;22.95;43.36;100186.63;5034705;28;20049;-69
2023/06/29 05:37:24;;;;;;;3.75;1.65;;;;;;;22.95;43.22;100178.47;5034296;28;20048;-68
2023/06/29 05:39:54;;;;;;;2.75;1.67;;;;;;;22.96;43.22;100184.75;5034241;28;20052;-68
2023/06/29 05:42:24;;;;;;;4.20;1.85;;;;;;;22.98;43.29;100178.16;5034059;28;20080;-67
2023/06/29 05:44:53;;;;;;;4.75;2.05;;;;;;;22.98;43.24;100180.88;5034173;28;20413;-68
2023/06/29 05:47:21;;;;;;;6.15;2.00;;;;;;;22.99;43.24;100185.28;5034316;28;20068;-67
2023/06/29 05:49:50;;;;;;;4.57;2.00;;;;;;;22.99;43.57;100181.72;5034441;28;20665;-68
2023/06/29 05:52:19;;;;;;;4.97;2.08;;;;;;;22.99;43.58;100179.00;5033703;28;20501;-67
2023/06/29 05:54:47;;;;;;;3.75;1.80;;;;;;;22.98;43.74;100189.03;5033067;28;20077;-67
2023/06/29 05:57:15;;;;;;;2.67;1.63;;;;;;;22.99;43.71;100184.44;5033931;28;20041;-68
2023/06/29 05:59:45;;;;;;;3.10;1.50;;;;;;;22.99;43.65;100185.28;5033541;28;20049;-69
2023/06/29 06:02:13;;;;;;;3.72;1.60;;;;;;;23.00;43.70;100186.97;5033886;28;20502;-68
2023/06/29 06:04:42;;;;;;;4.28;1.63;;;;;;;23.01;43.73;100182.38;5033594;28;20073;-68
2023/06/29 06:07:10;;;;;;;2.70;1.45;;;;;;;23.01;43.70;100185.09;5033802;28;20045;-67
2023/06/29 06:09:39;;;;;;;4.30;2.00;;;;;;;23.02;43.77;100186.78;5033473;28;20387;-69
2023/06/29 06:12:07;;;;;;;3.22;1.70;;;;;;;23.03;43.80;100188.50;5033917;28;20049;-67
2023/06/29 06:14:35;;;;;;;3.92;1.90;;;;;;;23.03;43.76;100189.34;5033890;28;20080;-68
2023/06/29 06:17:05;;;;;;;3.58;1.58;;;;;;;23.04;44.03;100198.34;5033664;28;20084;-68
2023/06/29 06:19:33;;;;;;;4.60;1.73;;;;;;;23.05;43.91;100200.03;5033561;28;20514;-68
2023/06/29 06:22:01;;;;;;;3.75;1.85;;;;;;;23.04;44.09;100195.63;5033654;28;20145;-68
2023/06/29 06:24:30;;;;;;;5.20;1.90;;;;;;;23.04;44.21;100196.47;5028488;28;20394;-69
2023/06/29 06:27:00;;;;;;;6.18;2.08;;;;;;;23.05;44.09;100190.00;5033450;28;20060;-68
2023/06/29 06:29:28;;;;;;;4.50;2.28;;;;;;;23.05;44.44;100183.72;5033772;28;20050;-68
2023/06/29 06:31:56;;;;;;;5.32;2.35;;;;;;;23.04;44.30;100193.75;5033571;28;20359;-70
2023/06/29 06:34:30;;;;;;;5.82;2.10;;;;;;;23.05;44.04;100194.59;5033478;28;20122;-68
2023/06/29 06:36:59;;;;;;;4.78;2.30;;;;;;;23.05;44.53;100194.59;5033377;28;20483;-68
2023/06/29 06:39:27;;;;;;;4.80;2.10;;;;;;;23.03;44.55;100202.94;5033525;28;20048;-68
2023/06/29 06:41:55;;;;;;;6.40;2.67;;;;;;;23.04;44.36;100195.63;5033126;28;20099;-68
2023/06/29 06:44:23;;;;;;;3.95;2.03;;;;;;;23.04;44.43;100191.03;5033198;28;20051;-67
2023/06/29 06:46:52;;;;;;;5.38;2.10;;;;;;;23.05;44.44;100194.59;5033225;28;20077;-68
2023/06/29 06:49:20;;;;;;;5.38;2.30;;;;;;;23.05;44.55;100187.28;5032929;28;20045;-68
2023/06/29 06:51:50;;;;;;;5.22;2.50;;;;;;;23.05;44.52;100192.72;5032557;28;20431;-68
2023/06/29 06:54:18;;;;;;;4.47;2.30;;;;;;;23.04;44.54;100199.19;5032264;28;20080;-66
2023/06/29 06:56:51;;;;;;;6.22;2.20;;;;;;;23.04;44.92;100190.19;5032403;28;20045;-69
2023/06/29 06:59:20;;;;;;;6.03;2.15;;;;;;;23.05;44.63;100191.88;5032664;28;20046;-66
2023/06/29 07:01:48;;;;;;;5.90;2.15;;;;;;;23.05;44.67;100200.03;5031732;28;20045;-67
2023/06/29 07:04:16;;;;;;;5.60;2.20;;;;;;;23.05;44.64;100200.03;5032739;28;20057;-67
2023/06/29 07:06:46;;;;;;;7.00;2.10;;;;;;;23.06;44.80;100202.59;5032882;28;20136;-67
2023/06/29 07:09:16;;;;;;;4.47;2.05;;;;;;;23.06;44.77;100196.28;5032831;28;20080;-68
2023/06/29 07:11:44;;;;;;;3.67;2.13;;;;;;;23.06;45.08;100197.13;5032675;28;20065;-67
2023/06/29 07:14:12;;;;;;;4.18;2.45;;;;;;;23.06;45.00;100208.03;5032695;28;20055;-66
2023/06/29 07:16:40;;;;;;;5.80;2.20;;;;;;;23.04;45.12;100196.47;5031831;28;20421;-67
2023/06/29 07:19:13;;;;;;;4.95;2.40;;;;;;;23.05;45.20;100191.88;5032344;28;20045;-67
2023/06/29 07:21:44;;;;;;;4.20;1.98;;;;;;;23.06;45.08;100196.28;5032619;28;20054;-66
2023/06/29 07:24:34;;;;;;;7.32;2.38;;;;;;;23.07;45.33;100195.31;5032486;28;20092;-67
2023/06/29 07:27:02;;;;;;;4.93;2.38;;;;;;;23.08;45.22;100192.41;5032249;28;20509;-67
2023/06/29 07:29:33;;;;;;;4.55;2.08;;;;;;;23.09;45.17;100201.41;5032321;28;20045;-67
2023/06/29 07:32:01;;;;;;;4.65;2.30;;;;;;;23.10;45.26;100203.09;5032507;28;20132;-65
2023/06/29 07:34:29;;;;;;;3.65;2.10;;;;;;;23.11;45.39;100204.78;5032450;28;20053;-66
2023/06/29 07:36:57;;;;;;;4.68;2.10;;;;;;;23.10;45.48;100201.22;5032048;28;20053;-66
2023/06/29 07:39:25;;;;;;;4.53;2.13;;;;;;;23.10;45.36;100209.38;5032217;28;20453;-66
2023/06/29 07:41:55;;;;;;;4.05;2.20;;;;;;;23.12;45.40;100211.94;5032254;28;20067;-66
2023/06/29 07:44:23;;;;;;;5.78;2.17;;;;;;;23.10;45.48;100206.66;5032066;28;20470;-66
2023/06/29 07:46:51;;;;;;;4.88;2.20;;;;;;;23.11;45.87;100204.78;5032163;28;20056;-66
2023/06/29 07:49:19;;;;;;;6.35;2.20;;;;;;;23.12;45.86;100211.94;5032102;28;20384;-66
2023/06/29 07:51:47;;;;;;;5.07;2.28;;;;;;;23.12;45.59;100196.47;5032029;28;20065;-66
2023/06/29 07:54:16;;;;;;;4.75;2.33;;;;;;;23.13;45.65;100208.19;5031723;28;20057;-66
2023/06/29 07:56:45;;;;;;;4.97;2.40;;;;;;;23.14;45.62;100201.72;5032113;28;20414;-67
2023/06/29 07:59:17;;;;;;;3.67;2.17;;;;;;;23.14;45.98;100196.28;5031902;28;20056;-67
2023/06/29 08:01:48;;;;;;;5.25;2.50;;;;;;;23.17;45.86;100203.25;5031726;28;20096;-67
2023/06/29 08:04:16;;;;;;;4.40;2.03;;;;;;;23.16;46.00;100202.38;5031930;28;20056;-67
2023/06/29 08:07:06;;;;;;;7.43;2.47;;;;;;;23.18;45.98;100202.25;5031578;28;20072;-67
2023/06/29 08:09:38;;;;;;;4.05;2.17;;;;;;;23.17;46.09;100204.13;5031551;28;20045;-66
2023/06/29 08:12:07;;;;;;;4.13;2.00;;;;;;;23.17;45.85;100187.78;5031844;28;20383;-66
2023/06/29 08:14:38;;;;;;;5.28;2.15;;;;;;;23.19;45.84;100196.63;5031415;28;20049;-66
2023/06/29 08:17:06;;;;;;;4.50;2.40;;;;;;;23.20;46.04;100181.13;5031502;28;20046;-66
2023/06/29 08:19:35;;;;;;;4.65;2.20;;;;;;;23.21;45.97;100191.84;5031297;28;20045;-66
2023/06/29 08:22:04;;;;;;;3.22;2.03;;;;;;;23.21;46.07;100186.41;5031491;28;20037;-67
2023/06/29 08:24:32;;;;;;;5.15;2.17;;;;;;;23.21;46.06;100189.13;5031280;28;20099;-66
2023/06/29 08:27:01;;;;;;;4.35;2.20;;;;;;;23.23;46.03;100192.50;5031180;28;20041;-67
2023/06/29 08:29:29;;;;;;;5.03;2.33;;;;;;;23.24;46.33;100194.19;5031494;28;20126;-67
2023/06/29 08:31:59;;;;;;;4.07;1.95;;;;;;;23.25;46.21;100190.44;5031191;28;20458;-67
2023/06/29 08:34:27;;;;;;;3.47;2.00;;;;;;;23.26;46.24;100185.84;5031367;28;20501;-67
2023/06/29 08:36:55;;;;;;;4.93;2.20;;;;;;;23.27;46.13;100193.88;5031427;28;20076;-66
2023/06/29 08:39:23;;;;;;;4.50;2.20;;;;;;;23.27;46.07;100193.88;5031171;28;20084;-66
2023/06/29 08:41:52;;;;;;;4.10;2.08;;;;;;;23.29;46.17;100189.09;5031195;28;20406;-66
2023/06/29 08:44:22;;;;;;;4.30;2.10;;;;;;;23.30;46.40;100192.66;5030908;28;20461;-66
2023/06/29 08:46:51;;;;;;;3.28;2.00;;;;;;;23.31;46.47;100184.31;5030763;28;20128;-66
2023/06/29 08:49:23;;;;;;;3.47;2.08;;;;;;;23.33;46.54;100190.44;5030726;28;20050;-66
2023/06/29 08:51:56;;;;;;;4.85;2.03;;;;;;;23.33;46.56;100190.44;5031121;28;20111;-66
2023/06/29 08:54:26;;;;;;;5.07;2.28;;;;;;;23.33;46.48;100187.69;5030926;28;20081;-66
2023/06/29 08:56:56;;;;;;;3.67;2.00;;;;;;;23.34;46.13;100183.97;5030722;28;20065;-66
2023/06/29 08:59:27;;;;;;;3.72;2.00;;;;;;;23.36;46.34;100186.53;5030782;28;20140;-66
2023/06/29 09:01:57;;;;;;;3.35;2.15;;;;;;;23.37;46.54;100186.34;5030937;28;20049;-67
2023/06/29 09:04:27;;;;;;;4.50;2.35;;;;;;;23.39;46.29;100184.28;5030781;28;20045;-67
2023/06/29 09:06:55;;;;;;;4.20;2.10;;;;;;;23.40;46.37;100188.69;5030813;28;20057;-67
2023/06/29 09:09:24;;;;;;;4.35;1.92;;;;;;;23.42;46.42;100186.66;5030883;28;20434;-66
2023/06/29 09:11:54;;;;;;;4.63;2.10;;;;;;;23.44;46.55;100194.63;5030795;28;20045;-66
2023/06/29 09:14:23;;;;;;;6.10;2.22;;;;;;;23.45;46.38;100195.47;5031157;28;20130;-66
2023/06/29 09:16:53;;;;;;;6.20;2.53;;;;;;;23.47;46.70;100188.00;5031069;28;20046;-66
2023/06/29 09:19:24;;;;;;;4.20;2.10;;;;;;;23.48;46.61;100200.59;5031064;28;20053;-66
2023/06/29 09:21:54;;;;;;;3.78;2.10;;;;;;;23.48;46.67;100179.66;5030546;28;20056;-67
2023/06/29 09:24:22;;;;;;;4.10;2.17;;;;;;;23.50;46.56;100182.19;5030598;28;20049;-67
2023/06/29 09:26:54;;;;;;;5.43;2.30;;;;;;;23.51;46.44;100179.28;5030636;28;20498;-66
2023/06/29 09:29:23;;;;;;;3.72;2.00;;;;;;;23.52;46.31;100186.44;5030689;28;20045;-66
2023/06/29 09:31:55;;;;;;;4.35;2.10;;;;;;;23.55;46.28;100185.25;5030519;28;20236;-67
2023/06/29 09:34:27;;;;;;;3.38;1.95;;;;;;;23.55;46.06;100180.66;5031017;28;20046;-66
2023/06/29 09:36:57;;;;;;;3.50;1.80;;;;;;;23.58;46.27;100179.44;5030340;28;20084;-66
2023/06/29 09:39:26;;;;;;;3.80;2.03;;;;;;;23.60;46.40;100172.81;5030905;28;20053;-66
2023/06/29 09:41:56;;;;;;;4.07;2.00;;;;;;;23.62;46.34;100180.81;5034384;28;20132;-66
2023/06/29 09:44:25;;;;;;;4.95;2.42;;;;;;;23.63;46.33;100185.22;5034300;28;20095;-65
2023/06/29 09:47:04;;;;;;;3.40;1.92;;;;;;;23.66;46.27;100182.16;5034245;28;20065;-67
2023/06/29 09:49:47;;;;;;;3.53;1.98;;;;;;;23.68;46.19;100185.53;5034312;28;20153;-66
2023/06/29 09:52:18;;;;;;;4.15;2.30;;;;;;;23.69;46.28;100184.50;5034024;28;20053;-68
2023/06/29 09:54:49;;;;;;;3.83;2.00;;;;;;;23.70;46.30;100178.03;5034317;28;20053;-66
2023/06/29 09:57:18;;;;;;;3.03;1.98;;;;;;;23.72;46.20;100184.16;5033969;28;20049;-67
2023/06/29 09:59:46;;;;;;;3.60;2.05;;;;;;;23.74;46.29;100173.94;5033742;28;20053;-67
2023/06/29 10:02:15;;;;;;;3.80;2.00;;;;;;;23.77;46.28;100176.31;5033642;28;20049;-67
2023/06/29 10:04:43;;;;;;;5.03;2.50;;;;;;;23.77;46.15;100181.75;5033917;28;20053;-67
2023/06/29 10:07:16;;;;;;;3.90;1.98;;;;;;;23.80;46.30;100177.81;5034050;28;20046;-67
2023/06/29 10:09:48;;;;;;;4.65;1.92;;;;;;;23.81;46.30;100179.50;5033877;28;20049;-67
2023/06/29 10:12:18;;;;;;;4.97;2.33;;;;;;;23.83;46.26;100172.84;5033809;28;20045;-66
2023/06/29 10:14:47;;;;;;;6.03;2.20;;;;;;;23.84;46.17;100180.00;5033879;28;20053;-66
2023/06/29 10:17:24;;;;;;;4.07;2.00;;;;;;;23.85;46.23;100176.25;5033460;28;20080;-67
2023/06/29 10:19:54;;;;;;;3.50;2.00;;;;;;;23.88;46.22;100175.88;5033712;28;20132;-67
2023/06/29 10:22:23;;;;;;;3.83;2.10;;;;;;;23.89;46.20;100177.59;5033770;28;20081;-68
2023/06/29 10:24:56;;;;;;;3.67;1.98;;;;;;;23.92;46.21;100179.94;5033914;28;20263;-66
2023/06/29 10:27:30;;;;;;;4.22;2.05;;;;;;;23.94;46.20;100186.06;5033879;28;20072;-68
2023/06/29 10:30:03;;;;;;;4.75;2.13;;;;;;;23.96;46.44;100184.00;5033526;28;20049;-68
2023/06/29 10:32:33;;;;;;;3.72;1.83;;;;;;;23.98;46.09;100171.06;5033272;28;20648;-67
2023/06/29 10:35:05;;;;;;;2.55;1.70;;;;;;;24.00;46.08;100173.59;5033360;28;20052;-67
2023/06/29 10:37:34;;;;;;;4.43;1.90;;;;;;;24.04;45.85;100180.41;5033329;28;20536;-67
2023/06/29 10:40:13;;;;;;;2.92;1.90;;;;;;;24.06;46.32;100186.50;5033412;28;20366;-67
2023/06/29 10:42:54;;;;;;;3.88;2.15;;;;;;;24.09;46.19;100171.66;5033638;28;20050;-66
2023/06/29 10:45:33;;;;;;;4.05;2.03;;;;;;;24.11;46.09;100186.78;5033173;28;20168;-67
2023/06/29 10:48:06;;;;;;;4.50;1.90;;;;;;;24.14;46.02;100178.28;5032947;28;20052;-68
2023/06/29 10:50:41;;;;;;;3.10;1.90;;;;;;;24.17;46.24;100174.34;5033319;28;20520;-67
2023/06/29 10:53:12;;;;;;;3.67;2.00;;;;;;;24.20;46.30;100173.97;5031820;28;20083;-67
2023/06/29 10:55:52;;;;;;;3.83;2.13;;;;;;;24.22;46.19;100171.88;5032935;28;20057;-69
2023/06/29 10:58:22;;;;;;;3.80;1.85;;;;;;;24.25;46.14;100161.50;5032816;28;20092;-67
2023/06/29 11:00:52;;;;;;;3.88;1.85;;;;;;;24.26;46.26;100167.78;5033062;28;20458;-68
2023/06/29 11:03:22;;;;;;;4.05;1.83;;;;;;;24.27;46.22;100161.31;5033012;28;20049;-67
2023/06/29 11:05:52;;;;;;;3.80;2.25;;;;;;;24.29;46.05;100156.50;5032608;28;20061;-67
2023/06/29 11:08:25;;;;;;;5.22;2.08;;;;;;;24.33;45.91;100166.06;5033048;28;20413;-67
2023/06/29 11:10:54;;;;;;;4.25;1.90;;;;;;;24.34;46.21;100159.59;5032734;28;20521;-68
2023/06/29 11:13:22;;;;;;;3.47;2.10;;;;;;;24.35;46.29;100155.81;5032897;28;20060;-66
2023/06/29 11:15:56;;;;;;;3.50;2.13;;;;;;;24.39;45.83;100156.28;5032760;28;20045;-66
2023/06/29 11:18:30;;;;;;;3.83;2.15;;;;;;;24.40;46.00;100164.28;5032651;28;20100;-67
2023/06/29 11:21:00;;;;;;;4.13;2.10;;;;;;;24.41;45.82;100155.06;5032523;28;20176;-68
2023/06/29 11:23:29;;;;;;;2.72;1.90;;;;;;;24.44;45.82;100157.44;5032209;28;20049;-68
2023/06/29 11:26:01;;;;;;;4.28;1.90;;;;;;;24.47;45.54;100159.78;5032149;28;20084;-67
2023/06/29 11:28:32;;;;;;;3.00;2.00;;;;;;;24.47;45.81;100158.94;5032497;28;20095;-67
2023/06/29 11:31:01;;;;;;;5.07;1.92;;;;;;;24.49;45.71;100155.00;5032312;28;20132;-66
2023/06/29 11:33:30;;;;;;;3.03;2.00;;;;;;;24.52;45.98;100157.38;5032259;28;20096;-66
2023/06/29 11:36:27;;;;;;;4.25;2.10;;;;;;;24.57;45.80;100155.97;5032652;28;20128;-66